createdAt,value
2018-08-16T00:00:01.446Z,16.12
2018-08-16T00:05:01.774Z,16.1
2018-08-16T00:10:02.106Z,15.99
2018-08-16T00:15:01.476Z,15.93
2018-08-16T00:20:01.870Z,15.95
2018-08-16T00:25:01.122Z,15.87
2018-08-16T00:30:01.394Z,15.88
2018-08-16T00:35:01.807Z,15.86
2018-08-16T00:40:01.230Z,15.8
2018-08-16T00:45:01.516Z,15.74
2018-08-16T00:50:01.894Z,15.7
2018-08-16T00:55:01.274Z,15.62
2018-08-16T01:00:01.629Z,15.68
2018-08-16T01:05:02.006Z,15.65
2018-08-16T01:10:01.399Z,15.53
2018-08-16T01:15:01.702Z,15.43
2018-08-16T01:20:02.139Z,15.41
2018-08-16T01:25:01.607Z,15.4
2018-08-16T01:30:02.088Z,15.26
2018-08-16T01:35:01.379Z,15.27
2018-08-16T01:40:01.771Z,15.24
2018-08-16T01:45:02.082Z,15.22
2018-08-16T01:50:01.353Z,15.17
2018-08-16T01:55:01.636Z,15.18
2018-08-16T02:00:01.942Z,15.14
2018-08-16T02:05:01.248Z,15.16
2018-08-16T02:10:01.596Z,15.18
2018-08-16T02:15:01.747Z,15.21
2018-08-16T02:20:01.323Z,15.26
2018-08-16T02:25:01.693Z,15.25
2018-08-16T02:30:01.942Z,15.21
2018-08-16T02:35:01.314Z,15.15
2018-08-16T02:40:02.092Z,14.99
2018-08-16T02:45:01.470Z,14.84
2018-08-16T02:50:01.795Z,14.68
2018-08-16T02:55:02.068Z,14.53
2018-08-16T03:00:01.334Z,14.43
2018-08-16T03:05:01.690Z,14.3
2018-08-16T03:10:01.100Z,14.21
2018-08-16T03:15:01.424Z,14.12
2018-08-16T03:20:01.841Z,14.03
2018-08-16T03:25:01.203Z,13.97
2018-08-16T03:30:01.468Z,13.89
2018-08-16T03:35:01.803Z,13.86
2018-08-16T03:40:02.112Z,13.75
2018-08-16T03:45:01.367Z,13.91
2018-08-16T03:50:01.705Z,13.74
2018-08-16T03:55:02.038Z,13.83
2018-08-16T04:00:01.370Z,14.03
2018-08-16T04:05:01.726Z,13.88
2018-08-16T04:10:02.098Z,13.99
2018-08-16T04:15:01.323Z,13.73
2018-08-16T04:20:01.723Z,13.79
2018-08-16T04:25:01.086Z,13.74
2018-08-16T04:30:01.354Z,13.62
2018-08-16T04:35:02.225Z,13.61
2018-08-16T04:40:01.778Z,13.52
2018-08-16T04:45:02.074Z,13.71
2018-08-16T04:50:01.338Z,13.73
2018-08-16T04:55:01.682Z,13.74
2018-08-16T05:00:01.916Z,13.48
2018-08-16T05:05:01.177Z,13.55
2018-08-16T05:10:01.429Z,13.69
2018-08-16T05:15:01.711Z,13.61
2018-08-16T05:20:02.046Z,13.63
2018-08-16T05:25:01.412Z,13.7
2018-08-16T05:30:01.706Z,13.78
2018-08-16T05:35:02.035Z,13.85
2018-08-16T05:40:01.420Z,14.05
2018-08-16T05:45:01.737Z,14.19
2018-08-16T05:50:01.988Z,14.33
2018-08-16T05:55:01.422Z,14.5
2018-08-16T06:00:01.676Z,14.69
2018-08-16T06:05:02.049Z,14.95
2018-08-16T06:10:01.465Z,15.17
2018-08-16T06:15:01.751Z,15.33
2018-08-16T06:20:02.011Z,15.83
2018-08-16T06:25:01.397Z,16.3
2018-08-16T06:30:01.762Z,16.89
2018-08-16T06:35:02.017Z,17.78
2018-08-16T06:40:01.420Z,18.61
2018-08-16T06:45:01.681Z,19.17
2018-08-16T06:50:02.060Z,19.32
2018-08-16T06:55:01.442Z,19.27
2018-08-16T07:00:01.791Z,20.01
2018-08-16T07:05:01.207Z,20.93
2018-08-16T07:10:01.563Z,21
2018-08-16T07:15:01.810Z,21.42
2018-08-16T07:20:01.139Z,21.5
2018-08-16T07:25:01.425Z,21.39
2018-08-16T07:30:01.866Z,21.76
2018-08-16T07:35:01.612Z,22.08
2018-08-16T07:40:01.943Z,22.09
2018-08-16T07:45:01.199Z,22.14
2018-08-16T07:50:01.532Z,22.02
2018-08-16T07:55:01.828Z,22.82
2018-08-16T08:00:01.068Z,22.73
2018-08-16T08:05:01.332Z,22.81
2018-08-16T08:10:01.715Z,22.67
2018-08-16T08:15:01.979Z,22.62
2018-08-16T08:20:01.304Z,22.94
2018-08-16T08:25:01.585Z,23.47
2018-08-16T08:30:01.839Z,23.52
2018-08-16T08:35:01.090Z,23.82
2018-08-16T08:40:01.328Z,23.56
2018-08-16T08:45:01.611Z,22.73
2018-08-16T08:50:01.900Z,23.45
2018-08-16T08:55:01.156Z,23.68
2018-08-16T09:00:01.376Z,23.64
2018-08-16T09:05:01.804Z,24.21
2018-08-16T09:10:01.187Z,24.44
2018-08-16T09:15:01.404Z,24.08
2018-08-16T09:20:01.749Z,23.7
2018-08-16T09:25:01.114Z,23.94
2018-08-16T09:30:01.344Z,23.91
2018-08-16T09:35:01.735Z,24.25
2018-08-16T09:40:02.041Z,24.29
2018-08-16T09:45:01.340Z,24
2018-08-16T09:50:01.699Z,23.47
2018-08-16T09:55:02.052Z,24.21
2018-08-16T10:00:01.336Z,24.6
2018-08-16T10:05:01.716Z,24.97
2018-08-16T10:10:02.030Z,25.31
2018-08-16T10:15:01.295Z,25.27
2018-08-16T10:20:01.633Z,25.3
2018-08-16T10:25:01.962Z,25.57
2018-08-16T10:30:01.246Z,25.6
2018-08-16T10:35:01.521Z,25.45
2018-08-16T10:40:01.932Z,25.27
2018-08-16T10:45:01.187Z,25.87
2018-08-16T10:50:01.433Z,26.39
2018-08-16T10:55:01.769Z,26.56
2018-08-16T11:00:02.171Z,26.38
2018-08-16T11:05:01.476Z,26.81
2018-08-16T11:10:01.843Z,26.34
2018-08-16T11:15:01.073Z,26.18
2018-08-16T11:20:01.321Z,25.83
2018-08-16T11:25:01.588Z,25.97
2018-08-16T11:30:01.950Z,25.61
2018-08-16T11:35:01.245Z,25.81
2018-08-16T11:40:01.707Z,25.79
2018-08-16T11:45:01.934Z,25.75
2018-08-16T11:50:01.209Z,25.88
2018-08-16T11:55:01.467Z,26.18
2018-08-16T12:00:01.730Z,26.39
2018-08-16T12:05:02.012Z,26.36
2018-08-16T12:10:01.384Z,26.4
2018-08-16T12:15:01.647Z,26.49
2018-08-16T12:20:01.132Z,26.52
2018-08-16T12:25:01.436Z,26.68
2018-08-16T12:30:01.712Z,26.28
2018-08-16T12:35:02.197Z,26.52
2018-08-16T12:40:01.849Z,26.84
2018-08-16T12:45:01.101Z,26.86
2018-08-16T12:50:01.338Z,26.77
2018-08-16T12:55:01.670Z,26.84
2018-08-16T13:00:01.922Z,26.73
2018-08-16T13:05:01.204Z,26.93
2018-08-16T13:10:01.459Z,27.26
2018-08-16T13:15:01.770Z,27.09
2018-08-16T13:20:01.164Z,27.05
2018-08-16T13:25:01.407Z,27.3
2018-08-16T13:30:01.722Z,27.42
2018-08-16T13:35:01.212Z,27.57
2018-08-16T13:40:01.527Z,27.44
2018-08-16T13:45:01.760Z,27.64
2018-08-16T13:50:02.152Z,27.71
2018-08-16T13:55:01.500Z,27.75
2018-08-16T14:00:01.996Z,27.7
2018-08-16T14:05:01.260Z,27.86
2018-08-16T14:10:01.574Z,27.94
2018-08-16T14:15:01.807Z,27.81
2018-08-16T14:20:01.090Z,27.87
2018-08-16T14:25:01.347Z,27.97
2018-08-16T14:30:01.636Z,28.04
2018-08-16T14:35:01.985Z,28.14
2018-08-16T14:40:01.390Z,28.21
2018-08-16T14:45:01.651Z,28.45
2018-08-16T14:50:02.018Z,28.47
2018-08-16T14:55:01.405Z,28.54
2018-08-16T15:00:01.683Z,28.55
2018-08-16T15:05:01.996Z,28.6
2018-08-16T15:10:01.429Z,28.73
2018-08-16T15:15:01.719Z,28.75
2018-08-16T15:20:01.998Z,28.71
2018-08-16T15:25:01.397Z,28.7
2018-08-16T15:30:01.707Z,28.65
2018-08-16T15:35:01.996Z,28.74
2018-08-16T15:40:01.379Z,28.62
2018-08-16T15:45:01.649Z,28.37
2018-08-16T15:50:01.947Z,28.54
2018-08-16T15:55:01.346Z,28.48
2018-08-16T16:00:01.620Z,28.35
2018-08-16T16:05:02.007Z,28.32
2018-08-16T16:10:01.369Z,28.5
2018-08-16T16:15:01.659Z,28.82
2018-08-16T16:20:02.008Z,28.58
2018-08-16T16:25:01.456Z,28.27
2018-08-16T16:30:01.793Z,28.08
2018-08-16T16:35:02.106Z,28.23
2018-08-16T16:40:01.511Z,28.55
2018-08-16T16:45:01.780Z,28.68
2018-08-16T16:50:01.544Z,28.55
2018-08-16T16:55:01.903Z,28.41
2018-08-16T17:00:01.156Z,28.32
2018-08-16T17:05:01.409Z,28.21
2018-08-16T17:10:01.794Z,28.24
2018-08-16T17:15:02.027Z,28.01
2018-08-16T17:20:01.310Z,28.03
2018-08-16T17:25:01.589Z,28.11
2018-08-16T17:30:01.827Z,27.95
2018-08-16T17:35:01.115Z,27.72
2018-08-16T17:40:01.373Z,27.57
2018-08-16T17:45:01.627Z,27.47
2018-08-16T17:50:01.920Z,27.31
2018-08-16T17:55:01.294Z,27.14
2018-08-16T18:00:01.520Z,26.98
2018-08-16T18:05:01.906Z,26.82
2018-08-16T18:10:01.297Z,26.5
2018-08-16T18:15:01.527Z,26.3
2018-08-16T18:20:01.953Z,25.92
2018-08-16T18:25:01.328Z,25.45
2018-08-16T18:30:01.616Z,25.06
2018-08-16T18:35:01.897Z,24.84
2018-08-16T18:40:01.154Z,24.57
2018-08-16T18:45:01.383Z,24.31
2018-08-16T18:50:01.736Z,24.11
2018-08-16T18:55:02.068Z,23.76
2018-08-16T19:00:01.284Z,23.57
2018-08-16T19:05:01.564Z,23.37
2018-08-16T19:10:01.965Z,23.01
2018-08-16T19:15:01.199Z,22.81
2018-08-16T19:20:01.463Z,22.57
2018-08-16T19:25:01.873Z,22.28
2018-08-16T19:30:01.244Z,22.1
2018-08-16T19:35:01.973Z,21.92
2018-08-16T19:40:01.325Z,21.73
2018-08-16T19:45:01.583Z,21.58
2018-08-16T19:50:01.955Z,21.43
2018-08-16T19:55:01.303Z,21.3
2018-08-16T20:00:01.562Z,21.15
2018-08-16T20:05:01.924Z,21.01
2018-08-16T20:10:01.418Z,20.84
2018-08-16T20:15:01.382Z,20.72
2018-08-16T20:20:01.776Z,20.61
2018-08-16T20:25:01.162Z,20.48
2018-08-16T20:30:01.429Z,20.36
2018-08-16T20:35:01.796Z,20.22
2018-08-16T20:40:01.191Z,20.14
2018-08-16T20:45:01.455Z,19.98
2018-08-16T20:50:01.815Z,19.83
2018-08-16T20:55:01.207Z,19.68
2018-08-16T21:00:01.438Z,19.55
2018-08-16T21:05:01.927Z,19.46
2018-08-16T21:10:01.281Z,19.33
2018-08-16T21:15:01.600Z,19.27
2018-08-16T21:20:01.161Z,19.2
2018-08-16T21:25:01.465Z,19.11
2018-08-16T21:30:01.723Z,19
2018-08-16T21:35:02.056Z,18.94
2018-08-16T21:40:01.440Z,18.84
2018-08-16T21:45:01.776Z,18.8
2018-08-16T21:50:02.061Z,18.69
2018-08-16T21:55:01.429Z,18.65
2018-08-16T22:00:01.672Z,18.59
2018-08-16T22:05:02.052Z,18.47
2018-08-16T22:10:01.405Z,18.42
2018-08-16T22:15:01.688Z,18.4
2018-08-16T22:20:02.040Z,18.38
2018-08-16T22:25:01.443Z,18.34
2018-08-16T22:30:01.724Z,18.28
2018-08-16T22:35:02.006Z,18.24
2018-08-16T22:40:01.409Z,18.3
2018-08-16T22:45:01.671Z,18.42
2018-08-16T22:50:01.956Z,18.4
2018-08-16T22:55:01.362Z,18.39
2018-08-16T23:00:01.683Z,18.35
2018-08-16T23:05:02.006Z,18.3
2018-08-16T23:10:01.556Z,18.26
2018-08-16T23:15:01.845Z,18.19
2018-08-16T23:20:01.153Z,18.07
2018-08-16T23:25:01.431Z,17.96
2018-08-16T23:30:01.675Z,17.88
2018-08-16T23:35:02.005Z,17.8
2018-08-16T23:40:01.411Z,17.74
2018-08-16T23:45:01.665Z,17.68
2018-08-16T23:50:01.973Z,17.62
2018-08-16T23:55:01.333Z,17.55
